sensor_id;sensor_type;location;lat;lon;timestamp;temperature;humidity
76293;DHT22;67256;51.154;4.164;2023-07-31T00:01:21;19.60;75.00
76293;DHT22;67256;51.154;4.164;2023-07-31T00:03:47;19.70;74.90
76293;DHT22;67256;51.154;4.164;2023-07-31T00:06:13;19.70;74.50
76293;DHT22;67256;51.154;4.164;2023-07-31T00:08:38;19.80;74.30
76293;DHT22;67256;51.154;4.164;2023-07-31T00:11:04;19.60;74.50
76293;DHT22;67256;51.154;4.164;2023-07-31T00:13:30;19.60;74.50
76293;DHT22;67256;51.154;4.164;2023-07-31T00:15:55;19.60;74.70
76293;DHT22;67256;51.154;4.164;2023-07-31T00:18:21;19.60;74.80
76293;DHT22;67256;51.154;4.164;2023-07-31T00:20:47;19.60;74.80
76293;DHT22;67256;51.154;4.164;2023-07-31T00:23:13;19.60;74.80
76293;DHT22;67256;51.154;4.164;2023-07-31T00:25:39;19.60;74.30
76293;DHT22;67256;51.154;4.164;2023-07-31T00:28:05;19.50;74.40
76293;DHT22;67256;51.154;4.164;2023-07-31T00:30:30;19.60;74.50
76293;DHT22;67256;51.154;4.164;2023-07-31T00:32:56;19.60;74.30
76293;DHT22;67256;51.154;4.164;2023-07-31T00:35:21;19.60;74.20
76293;DHT22;67256;51.154;4.164;2023-07-31T00:37:47;19.60;73.80
76293;DHT22;67256;51.154;4.164;2023-07-31T00:40:13;19.50;73.80
76293;DHT22;67256;51.154;4.164;2023-07-31T00:42:39;19.50;73.80
76293;DHT22;67256;51.154;4.164;2023-07-31T00:45:05;19.60;74.00
76293;DHT22;67256;51.154;4.164;2023-07-31T00:47:31;19.60;73.90
76293;DHT22;67256;51.154;4.164;2023-07-31T00:49:57;19.60;74.10
76293;DHT22;67256;51.154;4.164;2023-07-31T00:52:23;19.50;73.80
76293;DHT22;67256;51.154;4.164;2023-07-31T00:54:49;19.50;73.70
76293;DHT22;67256;51.154;4.164;2023-07-31T00:57:15;19.50;73.70
76293;DHT22;67256;51.154;4.164;2023-07-31T00:59:41;19.50;73.60
76293;DHT22;67256;51.154;4.164;2023-07-31T01:02:06;19.50;73.80
76293;DHT22;67256;51.154;4.164;2023-07-31T01:04:32;19.50;73.40
76293;DHT22;67256;51.154;4.164;2023-07-31T01:07:19;19.40;74.10
76293;DHT22;67256;51.154;4.164;2023-07-31T01:12:30;19.40;73.60
76293;DHT22;67256;51.154;4.164;2023-07-31T01:15:06;19.50;73.30
76293;DHT22;67256;51.154;4.164;2023-07-31T01:17:39;19.50;73.30
76293;DHT22;67256;51.154;4.164;2023-07-31T01:20:17;19.50;73.30
76293;DHT22;67256;51.154;4.164;2023-07-31T01:31:10;19.40;73.90
76293;DHT22;67256;51.154;4.164;2023-07-31T01:33:37;19.40;73.90
76293;DHT22;67256;51.154;4.164;2023-07-31T01:36:04;19.50;73.40
76293;DHT22;67256;51.154;4.164;2023-07-31T01:38:29;19.50;73.30
76293;DHT22;67256;51.154;4.164;2023-07-31T01:40:55;19.40;73.40
76293;DHT22;67256;51.154;4.164;2023-07-31T01:43:21;19.50;73.60
76293;DHT22;67256;51.154;4.164;2023-07-31T01:45:46;19.50;73.80
76293;DHT22;67256;51.154;4.164;2023-07-31T01:48:12;19.50;73.80
76293;DHT22;67256;51.154;4.164;2023-07-31T01:50:38;19.40;73.90
76293;DHT22;67256;51.154;4.164;2023-07-31T01:53:03;19.50;73.80
76293;DHT22;67256;51.154;4.164;2023-07-31T01:55:29;19.60;73.60
76293;DHT22;67256;51.154;4.164;2023-07-31T01:57:55;19.60;73.30
76293;DHT22;67256;51.154;4.164;2023-07-31T02:00:21;19.70;73.20
76293;DHT22;67256;51.154;4.164;2023-07-31T02:02:46;19.70;73.30
76293;DHT22;67256;51.154;4.164;2023-07-31T02:05:12;19.70;73.20
76293;DHT22;67256;51.154;4.164;2023-07-31T02:07:38;19.70;73.30
76293;DHT22;67256;51.154;4.164;2023-07-31T02:10:03;19.70;73.30
76293;DHT22;67256;51.154;4.164;2023-07-31T02:12:29;19.60;73.50
76293;DHT22;67256;51.154;4.164;2023-07-31T02:14:57;19.60;73.50
76293;DHT22;67256;51.154;4.164;2023-07-31T02:17:23;19.60;73.80
76293;DHT22;67256;51.154;4.164;2023-07-31T02:19:48;19.40;74.60
76293;DHT22;67256;51.154;4.164;2023-07-31T02:22:14;19.50;74.10
76293;DHT22;67256;51.154;4.164;2023-07-31T02:24:40;19.40;74.50
76293;DHT22;67256;51.154;4.164;2023-07-31T02:27:06;19.40;74.60
76293;DHT22;67256;51.154;4.164;2023-07-31T02:29:32;19.50;74.20
76293;DHT22;67256;51.154;4.164;2023-07-31T02:31:57;19.50;74.70
76293;DHT22;67256;51.154;4.164;2023-07-31T02:34:23;19.50;74.70
76293;DHT22;67256;51.154;4.164;2023-07-31T02:36:48;19.50;74.50
76293;DHT22;67256;51.154;4.164;2023-07-31T02:39:14;19.60;74.10
76293;DHT22;67256;51.154;4.164;2023-07-31T02:41:40;19.50;74.10
76293;DHT22;67256;51.154;4.164;2023-07-31T02:44:05;19.50;74.40
76293;DHT22;67256;51.154;4.164;2023-07-31T02:46:31;19.50;74.70
76293;DHT22;67256;51.154;4.164;2023-07-31T02:48:57;19.50;74.60
76293;DHT22;67256;51.154;4.164;2023-07-31T02:51:22;19.60;74.50
76293;DHT22;67256;51.154;4.164;2023-07-31T02:53:48;19.60;74.70
76293;DHT22;67256;51.154;4.164;2023-07-31T02:56:15;19.60;74.80
76293;DHT22;67256;51.154;4.164;2023-07-31T02:58:40;19.70;74.70
76293;DHT22;67256;51.154;4.164;2023-07-31T03:01:06;19.70;74.50
76293;DHT22;67256;51.154;4.164;2023-07-31T03:03:31;19.70;74.60
76293;DHT22;67256;51.154;4.164;2023-07-31T03:05:58;19.70;75.10
76293;DHT22;67256;51.154;4.164;2023-07-31T03:08:23;19.80;75.10
76293;DHT22;67256;51.154;4.164;2023-07-31T03:10:49;19.80;75.10
76293;DHT22;67256;51.154;4.164;2023-07-31T03:13:15;19.80;75.30
76293;DHT22;67256;51.154;4.164;2023-07-31T03:15:43;19.70;75.70
76293;DHT22;67256;51.154;4.164;2023-07-31T03:18:09;19.70;76.00
76293;DHT22;67256;51.154;4.164;2023-07-31T03:20:35;19.70;76.50
76293;DHT22;67256;51.154;4.164;2023-07-31T03:23:00;19.70;76.60
76293;DHT22;67256;51.154;4.164;2023-07-31T03:25:26;19.70;76.80
76293;DHT22;67256;51.154;4.164;2023-07-31T03:27:51;19.80;76.80
76293;DHT22;67256;51.154;4.164;2023-07-31T03:30:17;19.80;76.90
76293;DHT22;67256;51.154;4.164;2023-07-31T03:32:43;19.80;76.60
76293;DHT22;67256;51.154;4.164;2023-07-31T03:35:08;19.80;77.00
76293;DHT22;67256;51.154;4.164;2023-07-31T03:37:34;19.70;77.20
76293;DHT22;67256;51.154;4.164;2023-07-31T03:40:00;19.80;77.20
76293;DHT22;67256;51.154;4.164;2023-07-31T03:42:26;19.70;77.10
76293;DHT22;67256;51.154;4.164;2023-07-31T03:44:52;19.70;78.00
76293;DHT22;67256;51.154;4.164;2023-07-31T03:47:18;19.60;78.20
76293;DHT22;67256;51.154;4.164;2023-07-31T03:49:43;19.60;78.90
76293;DHT22;67256;51.154;4.164;2023-07-31T03:52:09;19.60;79.10
76293;DHT22;67256;51.154;4.164;2023-07-31T03:54:35;19.60;78.80
76293;DHT22;67256;51.154;4.164;2023-07-31T03:57:00;19.50;79.60
76293;DHT22;67256;51.154;4.164;2023-07-31T03:59:26;19.60;79.60
76293;DHT22;67256;51.154;4.164;2023-07-31T04:01:51;19.50;79.50
76293;DHT22;67256;51.154;4.164;2023-07-31T04:04:17;19.50;79.70
76293;DHT22;67256;51.154;4.164;2023-07-31T04:06:43;19.50;80.30
76293;DHT22;67256;51.154;4.164;2023-07-31T04:09:08;19.50;80.60
76293;DHT22;67256;51.154;4.164;2023-07-31T04:11:34;19.50;80.80
76293;DHT22;67256;51.154;4.164;2023-07-31T04:14:00;19.50;80.80
76293;DHT22;67256;51.154;4.164;2023-07-31T04:16:25;19.50;80.90
76293;DHT22;67256;51.154;4.164;2023-07-31T04:18:51;19.50;80.90
76293;DHT22;67256;51.154;4.164;2023-07-31T04:21:16;19.50;81.00
76293;DHT22;67256;51.154;4.164;2023-07-31T04:23:43;19.50;81.00
76293;DHT22;67256;51.154;4.164;2023-07-31T04:26:09;19.40;81.10
76293;DHT22;67256;51.154;4.164;2023-07-31T04:28:35;19.50;81.40
76293;DHT22;67256;51.154;4.164;2023-07-31T04:31:01;19.40;81.80
76293;DHT22;67256;51.154;4.164;2023-07-31T04:33:26;19.50;81.70
76293;DHT22;67256;51.154;4.164;2023-07-31T04:35:53;19.50;81.50
76293;DHT22;67256;51.154;4.164;2023-07-31T04:38:19;19.60;81.40
76293;DHT22;67256;51.154;4.164;2023-07-31T04:40:46;19.50;81.40
76293;DHT22;67256;51.154;4.164;2023-07-31T04:43:11;19.60;81.60
76293;DHT22;67256;51.154;4.164;2023-07-31T04:45:37;19.50;81.70
76293;DHT22;67256;51.154;4.164;2023-07-31T04:48:03;19.50;81.90
76293;DHT22;67256;51.154;4.164;2023-07-31T04:50:28;19.50;81.80
76293;DHT22;67256;51.154;4.164;2023-07-31T04:52:56;19.50;82.10
76293;DHT22;67256;51.154;4.164;2023-07-31T04:55:21;19.50;82.00
76293;DHT22;67256;51.154;4.164;2023-07-31T04:57:47;19.50;81.40
76293;DHT22;67256;51.154;4.164;2023-07-31T05:00:13;19.40;82.10
76293;DHT22;67256;51.154;4.164;2023-07-31T05:02:38;19.40;82.00
76293;DHT22;67256;51.154;4.164;2023-07-31T05:05:05;19.40;82.40
76293;DHT22;67256;51.154;4.164;2023-07-31T05:07:31;19.40;82.50
76293;DHT22;67256;51.154;4.164;2023-07-31T05:09:56;19.30;82.90
76293;DHT22;67256;51.154;4.164;2023-07-31T05:12:22;19.30;82.90
76293;DHT22;67256;51.154;4.164;2023-07-31T05:14:47;19.20;83.30
76293;DHT22;67256;51.154;4.164;2023-07-31T05:17:13;19.30;83.20
76293;DHT22;67256;51.154;4.164;2023-07-31T05:19:39;19.20;83.60
76293;DHT22;67256;51.154;4.164;2023-07-31T05:22:05;19.20;83.90
76293;DHT22;67256;51.154;4.164;2023-07-31T05:24:31;19.30;83.50
76293;DHT22;67256;51.154;4.164;2023-07-31T05:26:57;19.30;83.60
76293;DHT22;67256;51.154;4.164;2023-07-31T05:29:22;19.30;83.70
76293;DHT22;67256;51.154;4.164;2023-07-31T05:31:48;19.30;83.70
76293;DHT22;67256;51.154;4.164;2023-07-31T05:34:14;19.40;83.70
76293;DHT22;67256;51.154;4.164;2023-07-31T05:36:39;19.40;83.20
76293;DHT22;67256;51.154;4.164;2023-07-31T05:39:05;19.40;83.60
76293;DHT22;67256;51.154;4.164;2023-07-31T05:41:34;19.40;83.50
76293;DHT22;67256;51.154;4.164;2023-07-31T05:44:00;19.40;83.20
76293;DHT22;67256;51.154;4.164;2023-07-31T05:46:27;19.40;83.50
76293;DHT22;67256;51.154;4.164;2023-07-31T05:48:52;19.50;83.10
76293;DHT22;67256;51.154;4.164;2023-07-31T05:51:18;19.50;82.60
76293;DHT22;67256;51.154;4.164;2023-07-31T05:53:43;19.50;83.50
76293;DHT22;67256;51.154;4.164;2023-07-31T05:56:09;19.50;83.10
76293;DHT22;67256;51.154;4.164;2023-07-31T05:58:35;19.60;82.60
76293;DHT22;67256;51.154;4.164;2023-07-31T06:01:00;19.60;82.70
76293;DHT22;67256;51.154;4.164;2023-07-31T06:03:26;19.50;82.80
76293;DHT22;67256;51.154;4.164;2023-07-31T06:05:52;19.60;82.70
76293;DHT22;67256;51.154;4.164;2023-07-31T06:08:18;19.60;82.50
76293;DHT22;67256;51.154;4.164;2023-07-31T06:10:43;19.70;82.40
76293;DHT22;67256;51.154;4.164;2023-07-31T06:13:09;19.70;82.50
76293;DHT22;67256;51.154;4.164;2023-07-31T06:15:35;19.80;82.20
76293;DHT22;67256;51.154;4.164;2023-07-31T06:18:01;19.80;81.90
76293;DHT22;67256;51.154;4.164;2023-07-31T06:20:27;19.80;82.20
76293;DHT22;67256;51.154;4.164;2023-07-31T06:22:53;19.80;82.20
76293;DHT22;67256;51.154;4.164;2023-07-31T06:25:20;19.70;82.50
76293;DHT22;67256;51.154;4.164;2023-07-31T06:27:45;19.70;82.50
76293;DHT22;67256;51.154;4.164;2023-07-31T06:30:11;19.70;82.20
76293;DHT22;67256;51.154;4.164;2023-07-31T06:32:37;19.70;82.10
76293;DHT22;67256;51.154;4.164;2023-07-31T06:35:03;19.60;82.60
76293;DHT22;67256;51.154;4.164;2023-07-31T06:37:29;19.50;83.50
76293;DHT22;67256;51.154;4.164;2023-07-31T06:39:55;19.70;83.20
76293;DHT22;67256;51.154;4.164;2023-07-31T06:42:21;19.80;82.20
76293;DHT22;67256;51.154;4.164;2023-07-31T06:44:47;19.80;82.20
76293;DHT22;67256;51.154;4.164;2023-07-31T06:47:12;20.00;81.70
76293;DHT22;67256;51.154;4.164;2023-07-31T06:49:38;20.00;81.60
76293;DHT22;67256;51.154;4.164;2023-07-31T06:52:07;19.90;81.10
76293;DHT22;67256;51.154;4.164;2023-07-31T06:54:32;19.90;81.20
76293;DHT22;67256;51.154;4.164;2023-07-31T06:56:58;19.80;82.10
76293;DHT22;67256;51.154;4.164;2023-07-31T06:59:24;19.90;81.60
76293;DHT22;67256;51.154;4.164;2023-07-31T07:01:49;20.00;81.80
76293;DHT22;67256;51.154;4.164;2023-07-31T07:04:15;20.00;81.40
76293;DHT22;67256;51.154;4.164;2023-07-31T07:06:41;20.00;80.80
76293;DHT22;67256;51.154;4.164;2023-07-31T07:09:07;20.10;80.50
76293;DHT22;67256;51.154;4.164;2023-07-31T07:11:33;20.10;80.40
76293;DHT22;67256;51.154;4.164;2023-07-31T07:13:59;20.00;80.80
76293;DHT22;67256;51.154;4.164;2023-07-31T07:16:28;20.10;80.50
76293;DHT22;67256;51.154;4.164;2023-07-31T07:18:53;20.10;80.20
76293;DHT22;67256;51.154;4.164;2023-07-31T07:21:19;20.10;80.20
76293;DHT22;67256;51.154;4.164;2023-07-31T07:23:45;20.10;80.30
76293;DHT22;67256;51.154;4.164;2023-07-31T07:26:11;20.10;79.80
76293;DHT22;67256;51.154;4.164;2023-07-31T07:28:37;20.10;79.50
76293;DHT22;67256;51.154;4.164;2023-07-31T07:31:03;20.00;80.30
76293;DHT22;67256;51.154;4.164;2023-07-31T07:33:29;19.90;80.00
76293;DHT22;67256;51.154;4.164;2023-07-31T07:35:54;20.00;80.60
76293;DHT22;67256;51.154;4.164;2023-07-31T07:38:20;20.00;80.20
76293;DHT22;67256;51.154;4.164;2023-07-31T07:40:46;20.00;80.00
76293;DHT22;67256;51.154;4.164;2023-07-31T07:43:16;20.00;79.40
76293;DHT22;67256;51.154;4.164;2023-07-31T07:45:41;20.10;79.50
76293;DHT22;67256;51.154;4.164;2023-07-31T07:48:07;20.20;79.60
76293;DHT22;67256;51.154;4.164;2023-07-31T07:50:33;20.30;78.90
76293;DHT22;67256;51.154;4.164;2023-07-31T07:52:58;20.50;78.60
76293;DHT22;67256;51.154;4.164;2023-07-31T07:55:24;20.50;78.10
76293;DHT22;67256;51.154;4.164;2023-07-31T07:57:50;20.70;77.80
76293;DHT22;67256;51.154;4.164;2023-07-31T08:00:16;20.60;77.90
76293;DHT22;67256;51.154;4.164;2023-07-31T08:02:43;20.70;77.00
76293;DHT22;67256;51.154;4.164;2023-07-31T08:05:08;20.70;77.10
76293;DHT22;67256;51.154;4.164;2023-07-31T08:07:34;20.70;77.00
76293;DHT22;67256;51.154;4.164;2023-07-31T08:10:00;20.60;77.60
76293;DHT22;67256;51.154;4.164;2023-07-31T08:12:26;20.60;77.70
76293;DHT22;67256;51.154;4.164;2023-07-31T08:14:52;20.70;77.20
76293;DHT22;67256;51.154;4.164;2023-07-31T08:17:17;20.70;77.20
76293;DHT22;67256;51.154;4.164;2023-07-31T08:19:43;20.60;77.40
76293;DHT22;67256;51.154;4.164;2023-07-31T08:22:09;20.50;78.20
76293;DHT22;67256;51.154;4.164;2023-07-31T08:24:35;20.60;77.80
76293;DHT22;67256;51.154;4.164;2023-07-31T08:27:02;20.70;77.20
76293;DHT22;67256;51.154;4.164;2023-07-31T08:29:28;20.80;77.40
76293;DHT22;67256;51.154;4.164;2023-07-31T08:31:54;20.70;77.40
76293;DHT22;67256;51.154;4.164;2023-07-31T08:34:19;20.50;78.10
76293;DHT22;67256;51.154;4.164;2023-07-31T08:36:45;20.50;77.80
76293;DHT22;67256;51.154;4.164;2023-07-31T08:39:11;20.50;77.80
76293;DHT22;67256;51.154;4.164;2023-07-31T08:41:39;20.70;77.60
76293;DHT22;67256;51.154;4.164;2023-07-31T08:44:09;20.70;77.30
76293;DHT22;67256;51.154;4.164;2023-07-31T08:46:35;20.70;77.00
76293;DHT22;67256;51.154;4.164;2023-07-31T08:49:04;20.90;77.20
76293;DHT22;67256;51.154;4.164;2023-07-31T08:51:33;20.90;77.20
76293;DHT22;67256;51.154;4.164;2023-07-31T08:53:59;21.00;76.40
76293;DHT22;67256;51.154;4.164;2023-07-31T08:56:26;21.00;77.30
76293;DHT22;67256;51.154;4.164;2023-07-31T08:58:52;21.20;76.00
76293;DHT22;67256;51.154;4.164;2023-07-31T09:01:19;21.30;75.50
76293;DHT22;67256;51.154;4.164;2023-07-31T09:03:46;21.40;75.80
76293;DHT22;67256;51.154;4.164;2023-07-31T09:06:13;21.50;75.90
76293;DHT22;67256;51.154;4.164;2023-07-31T09:08:41;21.70;75.10
76293;DHT22;67256;51.154;4.164;2023-07-31T09:11:08;21.90;74.50
76293;DHT22;67256;51.154;4.164;2023-07-31T09:13:34;22.00;73.50
76293;DHT22;67256;51.154;4.164;2023-07-31T09:15:59;22.20;72.70
76293;DHT22;67256;51.154;4.164;2023-07-31T09:18:25;22.20;73.00
76293;DHT22;67256;51.154;4.164;2023-07-31T09:23:43;22.30;72.40
76293;DHT22;67256;51.154;4.164;2023-07-31T09:26:10;22.30;72.60
76293;DHT22;67256;51.154;4.164;2023-07-31T09:28:37;22.20;72.70
76293;DHT22;67256;51.154;4.164;2023-07-31T09:31:03;22.20;72.80
76293;DHT22;67256;51.154;4.164;2023-07-31T09:33:28;22.10;72.90
76293;DHT22;67256;51.154;4.164;2023-07-31T09:35:55;22.20;73.20
76293;DHT22;67256;51.154;4.164;2023-07-31T09:38:24;22.10;74.00
76293;DHT22;67256;51.154;4.164;2023-07-31T09:40:49;22.20;73.20
76293;DHT22;67256;51.154;4.164;2023-07-31T09:43:22;22.30;73.40
76293;DHT22;67256;51.154;4.164;2023-07-31T09:45:48;22.30;72.50
76293;DHT22;67256;51.154;4.164;2023-07-31T09:48:19;22.30;73.00
76293;DHT22;67256;51.154;4.164;2023-07-31T09:50:46;22.40;72.80
76293;DHT22;67256;51.154;4.164;2023-07-31T09:53:13;22.40;72.70
76293;DHT22;67256;51.154;4.164;2023-07-31T09:55:40;22.30;72.90
76293;DHT22;67256;51.154;4.164;2023-07-31T09:58:08;22.30;72.60
76293;DHT22;67256;51.154;4.164;2023-07-31T10:00:34;22.40;72.90
76293;DHT22;67256;51.154;4.164;2023-07-31T10:03:04;22.30;72.70
76293;DHT22;67256;51.154;4.164;2023-07-31T10:05:42;22.30;73.20
76293;DHT22;67256;51.154;4.164;2023-07-31T10:08:09;22.30;73.40
76293;DHT22;67256;51.154;4.164;2023-07-31T10:10:41;22.30;73.70
76293;DHT22;67256;51.154;4.164;2023-07-31T10:13:08;22.30;73.90
76293;DHT22;67256;51.154;4.164;2023-07-31T10:15:34;22.30;74.80
76293;DHT22;67256;51.154;4.164;2023-07-31T10:18:01;22.50;73.80
76293;DHT22;67256;51.154;4.164;2023-07-31T10:20:28;22.40;73.80
76293;DHT22;67256;51.154;4.164;2023-07-31T10:22:55;22.10;74.50
76293;DHT22;67256;51.154;4.164;2023-07-31T10:25:22;22.20;74.80
76293;DHT22;67256;51.154;4.164;2023-07-31T10:27:49;22.10;74.80
76293;DHT22;67256;51.154;4.164;2023-07-31T10:30:17;22.00;74.90
76293;DHT22;67256;51.154;4.164;2023-07-31T10:32:44;22.10;74.50
76293;DHT22;67256;51.154;4.164;2023-07-31T10:35:11;22.20;74.40
76293;DHT22;67256;51.154;4.164;2023-07-31T10:40:05;22.20;74.50
76293;DHT22;67256;51.154;4.164;2023-07-31T10:42:36;22.10;74.80
76293;DHT22;67256;51.154;4.164;2023-07-31T10:45:05;22.00;75.90
76293;DHT22;67256;51.154;4.164;2023-07-31T10:47:36;22.10;76.50
76293;DHT22;67256;51.154;4.164;2023-07-31T10:50:21;22.10;76.40
76293;DHT22;67256;51.154;4.164;2023-07-31T10:52:53;22.10;77.00
76293;DHT22;67256;51.154;4.164;2023-07-31T10:55:40;22.20;77.10
76293;DHT22;67256;51.154;4.164;2023-07-31T10:58:07;22.50;76.50
76293;DHT22;67256;51.154;4.164;2023-07-31T11:00:33;22.50;76.60
76293;DHT22;67256;51.154;4.164;2023-07-31T11:03:10;22.40;76.70
76293;DHT22;67256;51.154;4.164;2023-07-31T11:05:51;22.20;77.00
76293;DHT22;67256;51.154;4.164;2023-07-31T11:10:46;22.00;77.70
76293;DHT22;67256;51.154;4.164;2023-07-31T11:13:13;22.00;78.10
76293;DHT22;67256;51.154;4.164;2023-07-31T11:15:39;22.00;78.90
76293;DHT22;67256;51.154;4.164;2023-07-31T11:18:04;22.10;78.40
76293;DHT22;67256;51.154;4.164;2023-07-31T11:20:37;22.10;78.00
76293;DHT22;67256;51.154;4.164;2023-07-31T11:23:08;22.10;77.90
76293;DHT22;67256;51.154;4.164;2023-07-31T11:25:35;22.20;78.30
76293;DHT22;67256;51.154;4.164;2023-07-31T11:28:09;22.20;77.80
76293;DHT22;67256;51.154;4.164;2023-07-31T11:30:35;22.10;77.70
76293;DHT22;67256;51.154;4.164;2023-07-31T11:33:02;22.00;78.20
76293;DHT22;67256;51.154;4.164;2023-07-31T11:35:32;21.90;78.50
76293;DHT22;67256;51.154;4.164;2023-07-31T11:37:59;21.90;78.20
76293;DHT22;67256;51.154;4.164;2023-07-31T11:40:25;21.90;78.20
76293;DHT22;67256;51.154;4.164;2023-07-31T11:43:04;21.90;78.20
76293;DHT22;67256;51.154;4.164;2023-07-31T11:45:30;21.80;78.90
76293;DHT22;67256;51.154;4.164;2023-07-31T11:47:56;21.90;78.80
76293;DHT22;67256;51.154;4.164;2023-07-31T11:50:24;22.00;78.80
76293;DHT22;67256;51.154;4.164;2023-07-31T11:52:57;22.10;78.60
76293;DHT22;67256;51.154;4.164;2023-07-31T11:55:25;22.20;77.80
76293;DHT22;67256;51.154;4.164;2023-07-31T11:57:52;22.20;77.80
76293;DHT22;67256;51.154;4.164;2023-07-31T12:00:19;22.10;78.10
76293;DHT22;67256;51.154;4.164;2023-07-31T12:02:46;22.20;78.60
76293;DHT22;67256;51.154;4.164;2023-07-31T12:05:12;22.20;78.40
76293;DHT22;67256;51.154;4.164;2023-07-31T12:07:51;22.00;78.70
76293;DHT22;67256;51.154;4.164;2023-07-31T12:10:31;22.00;78.60
76293;DHT22;67256;51.154;4.164;2023-07-31T12:13:04;22.10;78.50
76293;DHT22;67256;51.154;4.164;2023-07-31T12:15:43;22.10;78.60
76293;DHT22;67256;51.154;4.164;2023-07-31T12:18:13;22.10;78.20
76293;DHT22;67256;51.154;4.164;2023-07-31T12:20:43;22.20;77.80
76293;DHT22;67256;51.154;4.164;2023-07-31T12:23:19;22.10;77.90
76293;DHT22;67256;51.154;4.164;2023-07-31T12:25:45;22.20;77.60
76293;DHT22;67256;51.154;4.164;2023-07-31T12:28:11;22.20;76.80
76293;DHT22;67256;51.154;4.164;2023-07-31T12:30:38;22.30;76.70
76293;DHT22;67256;51.154;4.164;2023-07-31T12:33:13;22.30;76.70
76293;DHT22;67256;51.154;4.164;2023-07-31T12:35:44;22.20;76.50
76293;DHT22;67256;51.154;4.164;2023-07-31T12:38:12;22.00;76.20
76293;DHT22;67256;51.154;4.164;2023-07-31T12:40:39;22.00;76.80
76293;DHT22;67256;51.154;4.164;2023-07-31T12:43:05;21.90;77.40
76293;DHT22;67256;51.154;4.164;2023-07-31T12:45:31;21.80;78.20
76293;DHT22;67256;51.154;4.164;2023-07-31T12:47:58;21.90;78.60
76293;DHT22;67256;51.154;4.164;2023-07-31T12:50:24;22.00;78.40
76293;DHT22;67256;51.154;4.164;2023-07-31T12:52:51;22.10;78.60
76293;DHT22;67256;51.154;4.164;2023-07-31T12:55:16;22.10;78.30
76293;DHT22;67256;51.154;4.164;2023-07-31T12:57:44;22.10;78.40
76293;DHT22;67256;51.154;4.164;2023-07-31T13:00:10;22.00;79.10
76293;DHT22;67256;51.154;4.164;2023-07-31T13:02:36;22.10;78.90
76293;DHT22;67256;51.154;4.164;2023-07-31T13:05:03;22.00;79.50
76293;DHT22;67256;51.154;4.164;2023-07-31T13:07:28;22.10;79.60
76293;DHT22;67256;51.154;4.164;2023-07-31T13:09:54;22.10;79.90
76293;DHT22;67256;51.154;4.164;2023-07-31T13:12:20;22.10;79.60
76293;DHT22;67256;51.154;4.164;2023-07-31T13:14:45;22.10;80.20
76293;DHT22;67256;51.154;4.164;2023-07-31T13:17:11;21.90;81.20
76293;DHT22;67256;51.154;4.164;2023-07-31T13:19:36;21.80;81.30
76293;DHT22;67256;51.154;4.164;2023-07-31T13:22:02;21.90;81.10
76293;DHT22;67256;51.154;4.164;2023-07-31T13:24:28;22.00;80.70
76293;DHT22;67256;51.154;4.164;2023-07-31T13:26:55;21.90;80.80
76293;DHT22;67256;51.154;4.164;2023-07-31T13:29:20;21.90;81.00
76293;DHT22;67256;51.154;4.164;2023-07-31T13:31:47;21.90;81.00
76293;DHT22;67256;51.154;4.164;2023-07-31T13:34:13;21.80;81.00
76293;DHT22;67256;51.154;4.164;2023-07-31T13:36:38;21.90;81.60
76293;DHT22;67256;51.154;4.164;2023-07-31T13:39:04;21.80;81.40
76293;DHT22;67256;51.154;4.164;2023-07-31T13:41:30;21.80;81.30
76293;DHT22;67256;51.154;4.164;2023-07-31T13:43:56;21.80;80.80
76293;DHT22;67256;51.154;4.164;2023-07-31T13:46:22;21.80;80.80
76293;DHT22;67256;51.154;4.164;2023-07-31T13:48:48;21.70;80.50
76293;DHT22;67256;51.154;4.164;2023-07-31T13:51:13;21.60;81.00
76293;DHT22;67256;51.154;4.164;2023-07-31T13:53:39;21.50;81.00
76293;DHT22;67256;51.154;4.164;2023-07-31T13:56:06;21.40;81.40
76293;DHT22;67256;51.154;4.164;2023-07-31T13:58:33;21.40;81.30
76293;DHT22;67256;51.154;4.164;2023-07-31T14:00:58;21.30;81.90
76293;DHT22;67256;51.154;4.164;2023-07-31T14:03:24;21.20;82.00
76293;DHT22;67256;51.154;4.164;2023-07-31T14:05:51;21.30;82.40
76293;DHT22;67256;51.154;4.164;2023-07-31T14:08:17;21.20;82.20
76293;DHT22;67256;51.154;4.164;2023-07-31T14:10:42;21.30;82.00
76293;DHT22;67256;51.154;4.164;2023-07-31T14:13:08;21.30;81.80
76293;DHT22;67256;51.154;4.164;2023-07-31T14:15:34;21.30;81.50
76293;DHT22;67256;51.154;4.164;2023-07-31T14:18:01;21.30;82.40
76293;DHT22;67256;51.154;4.164;2023-07-31T14:20:28;21.40;81.60
76293;DHT22;67256;51.154;4.164;2023-07-31T14:22:53;21.40;81.50
76293;DHT22;67256;51.154;4.164;2023-07-31T14:25:20;21.50;81.00
76293;DHT22;67256;51.154;4.164;2023-07-31T14:27:46;21.50;80.60
76293;DHT22;67256;51.154;4.164;2023-07-31T14:30:11;21.50;80.60
76293;DHT22;67256;51.154;4.164;2023-07-31T14:32:37;21.50;80.50
76293;DHT22;67256;51.154;4.164;2023-07-31T14:35:03;21.50;80.60
76293;DHT22;67256;51.154;4.164;2023-07-31T14:37:39;21.50;80.30
76293;DHT22;67256;51.154;4.164;2023-07-31T14:40:07;21.50;80.90
76293;DHT22;67256;51.154;4.164;2023-07-31T14:42:33;21.40;81.30
76293;DHT22;67256;51.154;4.164;2023-07-31T14:44:59;21.40;81.50
76293;DHT22;67256;51.154;4.164;2023-07-31T14:47:25;21.30;81.10
76293;DHT22;67256;51.154;4.164;2023-07-31T14:49:50;21.30;81.80
76293;DHT22;67256;51.154;4.164;2023-07-31T14:52:16;21.30;81.80
76293;DHT22;67256;51.154;4.164;2023-07-31T14:54:42;21.40;81.40
76293;DHT22;67256;51.154;4.164;2023-07-31T14:57:08;21.40;81.30
76293;DHT22;67256;51.154;4.164;2023-07-31T14:59:34;21.40;81.40
76293;DHT22;67256;51.154;4.164;2023-07-31T15:01:59;21.40;81.50
76293;DHT22;67256;51.154;4.164;2023-07-31T15:04:25;21.30;81.60
76293;DHT22;67256;51.154;4.164;2023-07-31T15:06:52;21.40;81.30
76293;DHT22;67256;51.154;4.164;2023-07-31T15:09:18;21.30;81.90
76293;DHT22;67256;51.154;4.164;2023-07-31T15:11:43;21.30;81.80
76293;DHT22;67256;51.154;4.164;2023-07-31T15:14:09;21.30;81.80
76293;DHT22;67256;51.154;4.164;2023-07-31T15:16:35;21.40;81.50
76293;DHT22;67256;51.154;4.164;2023-07-31T15:19:01;21.40;81.60
76293;DHT22;67256;51.154;4.164;2023-07-31T15:21:26;21.40;81.30
76293;DHT22;67256;51.154;4.164;2023-07-31T15:23:52;21.40;81.60
76293;DHT22;67256;51.154;4.164;2023-07-31T15:26:18;21.40;81.60
76293;DHT22;67256;51.154;4.164;2023-07-31T15:28:55;21.30;81.70
76293;DHT22;67256;51.154;4.164;2023-07-31T15:31:21;21.40;81.60
76293;DHT22;67256;51.154;4.164;2023-07-31T15:33:48;21.40;81.60
76293;DHT22;67256;51.154;4.164;2023-07-31T15:36:13;21.30;81.80
76293;DHT22;67256;51.154;4.164;2023-07-31T15:38:39;21.40;81.90
76293;DHT22;67256;51.154;4.164;2023-07-31T15:41:06;21.30;81.50
76293;DHT22;67256;51.154;4.164;2023-07-31T15:43:32;21.40;81.80
76293;DHT22;67256;51.154;4.164;2023-07-31T15:45:59;21.40;82.40